Flight Track Log - Related Links

Times and Time Zones

All times are in EDT time to prevent confusion due to time zone crossing. See the UAL654 flight status page for this flight to view local times or setup timezone preferences in your user account.

Time Position Orientation Groundspeed Altitude Reporting Facility
EDT Latitude Longitude Course Direction KTS MPH feet Rate Location/Type
Tue 06:42:55 PM 29.9789 -95.3006 335° Northwest 157 181 700  Level Houston Center
Tue 06:43:20 PM 29.9925 -95.2892 36° Northeast 163 188 1,400 1,304 Climbing Houston Center
Tue 06:44:27 PM 30.0625 -95.2975 354° North 260 299 2,700 1,561 Climbing Houston Center
Tue 06:45:00 PM 30.2841 -95.5088 332° Northwest  Level FlightAware
Tue 06:45:23 PM 30.1100 -95.3297 330° Northwest 254 292 4,600  Level Houston Center
Tue 06:46:00 PM 30.3846 -95.5692 334° Northwest  Level FlightAware
Tue 06:46:24 PM 30.1883 -95.3886 327° Northwest 286 329 8,000  Level Houston Center
Tue 06:47:00 PM 30.4868 -95.6260 334° Northwest  Level FlightAware
Tue 06:47:27 PM 30.2567 -95.4392 327° Northwest 286 329 10,300  Level Houston Center
Tue 06:48:00 PM 30.5898 -95.6807 335° Northwest  Level FlightAware
Tue 06:48:29 PM 30.3353 -95.5000 326° Northwest 333 383 11,000  Level Houston Center
Tue 06:49:31 PM 30.4217 -95.5656 327° Northwest 363 418 12,700 1,742 Climbing Houston Center
Tue 06:50:33 PM 30.5094 -95.6328 327° Northwest 378 435 14,600 1,839 Climbing Houston Center
Tue 06:51:35 PM 30.6253 -95.7008 333° Northwest 391 450 16,500 1,742 Climbing Houston Center
Tue 06:52:37 PM 30.7172 -95.7483 336° Northwest 400 460 18,200 1,597 Climbing Houston Center
Tue 06:53:39 PM 30.8197 -95.8047 335° Northwest 405 466 19,800 1,403 Climbing Houston Center
Tue 06:54:41 PM 30.9483 -95.8719 336° Northwest 421 484 21,100 1,210 Climbing Houston Center
Tue 06:55:43 PM 31.0597 -95.9325 335° Northwest 435 501 22,300 1,210 Climbing Houston Center
Tue 06:56:45 PM 31.1725 -95.9864 338° Northwest 436 502 23,600 1,161 Climbing Houston Center
Tue 06:57:47 PM 31.2931 -96.0319 342° North 449 517 24,700 823 Climbing Houston Center
Tue 06:58:49 PM 31.4164 -96.0786 342° North 460 529 25,300 1,065 Climbing Houston Center
Tue 06:59:51 PM 31.5550 -96.1325 342° North 468 539 26,900 1,189 Climbing Houston Center
Tue 07:00:40 PM 31.6581 -96.1736 341° North 464 534 27,500 991 Climbing Fort Center
Tue 07:01:40 PM 31.7819 -96.2231 341° North 464 534 28,700 1,240 Climbing Fort Center
Tue 07:02:41 PM 31.8992 -96.2706 341° North 457 526 30,000 1,150 Climbing Fort Center
Tue 07:03:40 PM 32.0186 -96.3181 341° North 457 526 31,000 958 Climbing Fort Center
Tue 07:04:40 PM 32.1381 -96.3731 339° North 457 526 31,900 843 Climbing Fort Center
Tue 07:05:41 PM 32.2453 -96.4506 329° Northwest 451 519 32,700 1,000 Climbing Fort Center
Tue 07:06:40 PM 32.3356 -96.5478 318° Northwest 440 506 33,900 958 Climbing Fort Center
Tue 07:07:40 PM 32.4219 -96.6481 316° Northwest 440 506 34,600 700 Climbing Fort Center
Tue 07:08:40 PM 32.5122 -96.7483 317° Northwest 434 499 35,300 700 Climbing Fort Center
Tue 07:09:40 PM 32.5961 -96.8461 316° Northwest 429 494 36,000 350 Climbing Fort Center
Tue 07:10:40 PM 32.6842 -96.9444 317° Northwest 429 494 36,000  Level Fort Center
Tue 07:11:40 PM 32.7597 -97.0306 316° Northwest 429 494 36,000  Level Fort Center
Tue 07:12:40 PM 32.8539 -97.1389 316° Northwest 429 494 36,000  Level Fort Center
Tue 07:13:40 PM 32.9314 -97.2303 315° West 429 494 36,000  Level Fort Center
Tue 07:14:41 PM 33.0211 -97.3442 313° West 434 499 36,000  Level Fort Center
Tue 07:15:40 PM 33.0983 -97.4433 313° West 448 516 36,000  Level Fort Center
Tue 07:16:40 PM 33.1797 -97.5450 314° West 437 503 36,000  Level Fort Center
Tue 07:17:40 PM 33.2611 -97.6469 314° West 426 490 36,000  Level Fort Center
Tue 07:18:41 PM 33.3403 -97.7517 312° West 426 490 36,000  Level Fort Center
Tue 07:19:40 PM 33.4233 -97.8564 314° West 426 490 36,000  Level Fort Center
Tue 07:20:41 PM 33.5000 -97.9589 312° West 421 484 36,000  Level Fort Center
Tue 07:21:40 PM 33.5914 -98.0519 320° Northwest 421 484 36,000  Level Fort Center
Tue 07:22:40 PM 33.6914 -98.1275 328° Northwest 426 490 36,000  Level Fort Center
Tue 07:23:41 PM 33.7953 -98.2033 329° Northwest 426 490 36,000  Level Fort Center
Tue 07:24:41 PM 33.8947 -98.2792 328° Northwest 426 490 36,000  Level Fort Center
Tue 07:25:40 PM 33.9944 -98.3556 328° Northwest 432 497 36,000  Level Fort Center
Tue 07:26:40 PM 34.0919 -98.4317 327° Northwest 432 497 36,000  Level Fort Center
Tue 07:27:41 PM 34.1914 -98.5108 327° Northwest 427 491 36,000  Level Fort Center
Tue 07:28:40 PM 34.2950 -98.5925 327° Northwest 427 491 36,000  Level Fort Center
Tue 07:29:41 PM 34.3964 -98.6694 328° Northwest 437 503 36,000  Level Fort Center
Tue 07:30:40 PM 34.5000 -98.7489 328° Northwest 437 503 36,000  Level Fort Center
Tue 07:31:40 PM 34.6014 -98.8264 328° Northwest 430 495 36,000  Level Fort Center
Tue 07:32:40 PM 34.7131 -98.9064 330° Northwest 430 495 36,000  Level Fort Center
Tue 07:33:41 PM 34.8164 -98.9892 327° Northwest 430 495 36,000  Level Fort Center
Tue 07:34:40 PM 34.9217 -99.0672 329° Northwest 435 501 36,000  Level Fort Center
Tue 07:35:41 PM 35.0250 -99.1503 327° Northwest 435 501 36,000  Level Fort Center
Tue 07:36:40 PM 35.1303 -99.2286 329° Northwest 435 501 36,000  Level Fort Center
Tue 07:38:11 PM 35.2756 -99.3489 326° Northwest 445 512 36,000  Level Kansas Center
Tue 07:39:13 PM 35.3800 -99.4311 327° Northwest 443 510 36,000  Level Kansas Center
Tue 07:40:15 PM 35.4833 -99.5133 327° Northwest 441 507 36,000  Level Kansas Center
Tue 07:41:17 PM 35.5875 -99.5956 327° Northwest 441 507 36,000  Level Kansas Center
Tue 07:42:19 PM 35.7125 -99.6942 327° Northwest 440 506 36,000  Level Kansas Center
Tue 07:43:21 PM 35.8161 -99.7764 327° Northwest 439 505 36,000  Level Kansas Center
Tue 07:44:23 PM 35.9200 -99.8603 327° Northwest 441 507 36,000  Level Kansas Center
Tue 07:45:25 PM 36.0233 -99.9428 327° Northwest 440 506 36,000  Level Kansas Center
Tue 07:46:27 PM 36.1253 -100.0244 327° Northwest 436 502 36,000  Level Kansas Center
Tue 07:47:29 PM 36.2406 -100.0819 338° Northwest 441 507 36,000  Level Kansas Center
Tue 07:48:31 PM 36.3550 -100.1392 338° Northwest 440 506 36,000  Level Kansas Center
Tue 07:49:33 PM 36.4689 -100.1967 338° Northwest 440 506 36,000  Level Kansas Center
Tue 07:50:35 PM 36.6058 -100.2661 338° Northwest 439 505 36,000  Level Kansas Center
Tue 07:51:37 PM 36.7189 -100.3225 338° Northwest 438 504 36,000  Level Kansas Center
Tue 07:52:39 PM 36.8311 -100.3767 339° North 438 504 36,000  Level Kansas Center
Tue 07:53:41 PM 36.9400 -100.4303 339° North 439 505 36,000  Level Kansas Center
Tue 07:54:43 PM 37.0669 -100.4939 338° Northwest 440 506 36,000  Level Kansas Center
Tue 07:55:44 PM 37.1767 -100.5475 339° North 441 507 36,000  Level Kansas Center
Tue 07:56:46 PM 37.3033 -100.6139 337° Northwest 443 510 36,000  Level Kansas Center
Tue 07:57:48 PM 37.3989 -100.6956 326° Northwest 435 501 36,000  Level Kansas Center
Tue 07:58:50 PM 37.5097 -100.7922 325° Northwest 430 495 36,000  Level Kansas Center
Tue 07:59:52 PM 37.6072 -100.8792 325° Northwest 428 493 36,000 -48 Level Kansas Center
Tue 08:00:54 PM 37.7058 -100.9631 326° Northwest 427 491 35,900 -48 Descending Kansas Center
Tue 08:01:56 PM 37.8117 -101.0594 324° Northwest 428 493 35,900 48 Level Kansas Center
Tue 08:02:58 PM 37.9058 -101.1428 325° Northwest 429 494 36,000 48 Climbing Kansas Center
Tue 08:04:00 PM 38.0172 -101.2392 326° Northwest 432 497 36,000  Level Kansas Center
Tue 08:05:01 PM 38.1161 -101.3161 329° Northwest 435 501 36,000  Level Kansas Center
Tue 08:06:03 PM 38.2150 -101.3917 329° Northwest 433 498 36,000  Level Kansas Center
Tue 08:07:05 PM 38.3306 -101.4803 329° Northwest 434 499 36,000  Level Kansas Center
Tue 08:08:07 PM 38.4328 -101.5544 330° Northwest 439 505 36,000  Level Kansas Center
Tue 08:09:09 PM 38.5500 -101.6442 329° Northwest 440 506 36,000  Level Kansas Center
Tue 08:10:23 PM 38.6814 -101.7439 329° Northwest 432 497 36,000 -44 Level Denver Center
Tue 08:11:25 PM 38.7781 -101.8186 329° Northwest 425 489 35,900  Descending Denver Center
Tue 08:12:27 PM 38.8764 -101.8944 329° Northwest 431 496 36,000 44 Climbing Denver Center
Tue 08:13:41 PM 38.9900 -101.9836 329° Northwest 430 495 36,000  Level Denver Center
Tue 08:14:43 PM 39.1214 -102.0847 329° Northwest 432 497 36,000  Level Denver Center
Tue 08:15:44 PM 39.2014 -102.1503 328° Northwest 428 493 36,000  Level Denver Center
Tue 08:16:59 PM 39.3306 -102.2511 329° Northwest 428 493 36,000  Level Denver Center
Tue 08:18:01 PM 39.4489 -102.3447 329° Northwest 426 490 36,000  Level Denver Center
Tue 08:19:03 PM 39.5614 -102.4328 329° Northwest 436 502 36,000  Level Denver Center
Tue 08:20:05 PM 39.6656 -102.5158 328° Northwest 438 504 36,000  Level Denver Center
Tue 08:21:06 PM 39.7639 -102.5950 328° Northwest 435 501 36,000  Level Denver Center
Tue 08:22:08 PM 39.8775 -102.6867 328° Northwest 430 495 36,000  Level Denver Center
Tue 08:23:10 PM 39.9694 -102.7608 328° Northwest 431 496 36,000  Level Denver Center
Tue 08:24:12 PM 40.0719 -102.8436 328° Northwest 434 499 36,000  Level Denver Center
Tue 08:25:14 PM 40.1939 -102.9414 329° Northwest 430 495 36,000  Level Denver Center
Tue 08:26:15 PM 40.2931 -103.0222 328° Northwest 423 487 36,000  Level Denver Center
Tue 08:27:17 PM 40.3925 -103.1042 328° Northwest 424 488 36,000  Level Denver Center
Tue 08:28:19 PM 40.4922 -103.1861 328° Northwest 425 489 36,000 242 Level Denver Center
Tue 08:29:21 PM 40.5883 -103.2708 326° Northwest 419 482 36,500 774 Climbing Denver Center
Tue 08:30:23 PM 40.6650 -103.3747 314° West 400 460 37,600 732 Climbing Denver Center
Tue 08:31:24 PM 40.7539 -103.4989 313° West 389 448 38,000 195 Climbing Denver Center
Tue 08:32:26 PM 40.8308 -103.6053 314° West 399 459 38,000  Level Denver Center
Tue 08:33:28 PM 40.9103 -103.7136 314° West 409 471 38,000  Level Denver Center
Tue 08:34:29 PM 40.9892 -103.8200 315° West 408 470 38,000  Level Denver Center
Tue 08:35:31 PM 41.0750 -103.9356 315° West 407 468 38,000  Level Denver Center
Tue 08:36:33 PM 41.1611 -104.0258 322° Northwest 417 480 38,000  Level Denver Center
Tue 08:37:34 PM 41.2700 -104.1133 329° Northwest 408 470 38,000 -49 Level Denver Center
Tue 08:38:36 PM 41.3625 -104.1900 328° Northwest 407 468 37,900  Descending Denver Center
Tue 08:39:37 PM 41.4569 -104.2675 328° Northwest 415 478 38,000 49 Climbing Denver Center
Tue 08:40:39 PM 41.5686 -104.3611 328° Northwest 423 487 38,000 -48 Level Denver Center
Tue 08:41:41 PM 41.6639 -104.4403 328° Northwest 420 483 37,900  Descending Denver Center
Tue 08:42:42 PM 41.7739 -104.5325 328° Northwest 418 481 38,000 49 Climbing Denver Center
Tue 08:43:44 PM 41.8694 -104.6108 329° Northwest 418 481 38,000  Level Denver Center
Tue 08:44:57 PM 41.9825 -104.7069 328° Northwest 430 495 38,000  Level Denver Center
Tue 08:45:59 PM 42.0958 -104.8028 328° Northwest 430 495 38,000  Level Denver Center
Tue 08:47:01 PM 42.2086 -104.8997 328° Northwest 429 494 38,000  Level Denver Center
Tue 08:48:02 PM 42.3039 -104.9811 328° Northwest 424 488 38,000  Level Denver Center
Tue 08:49:04 PM 42.3989 -105.0636 327° Northwest 422 486 38,000  Level Denver Center
Tue 08:50:05 PM 42.5094 -105.1569 328° Northwest 417 480 38,000 -49 Level Denver Center
Tue 08:51:07 PM 42.6033 -105.2383 327° Northwest 416 479 37,900  Descending Denver Center
Tue 08:52:09 PM 42.6972 -105.3197 328° Northwest 417 480 38,000 49 Climbing Denver Center
Tue 08:53:10 PM 42.8094 -105.4175 327° Northwest 427 491 38,000  Level Denver Center
Tue 08:54:12 PM 42.9064 -105.5000 328° Northwest 428 493 38,000  Level Denver Center
Tue 08:55:13 PM 43.0183 -105.5994 327° Northwest 428 493 38,000  Level Denver Center
Tue 08:56:27 PM 43.1161 -105.6844 328° Northwest 434 499 38,000  Level Denver Center
Tue 08:57:29 PM 43.2444 -105.7978 327° Northwest 430 495 38,000  Level Denver Center
Tue 08:58:30 PM 43.3400 -105.8828 327° Northwest 428 493 38,000  Level Denver Center
Tue 08:59:32 PM 43.4508 -105.9808 327° Northwest 423 487 38,000 -48 Level Denver Center
Tue 09:00:34 PM 43.5450 -106.0650 327° Northwest 422 486 37,900  Descending Denver Center
Tue 09:01:35 PM 43.6389 -106.1497 327° Northwest 421 484 38,000 48 Climbing Denver Center
Tue 09:02:38 PM 43.7500 -106.2503 327° Northwest 426 490 38,000  Level Salt Center
Tue 09:03:39 PM 43.8461 -106.3389 326° Northwest 432 497 38,000 -49 Level Salt Center
Tue 09:04:41 PM 43.9572 -106.4386 327° Northwest 425 489 37,900 -49 Descending Salt Center
Tue 09:05:42 PM 44.0483 -106.5222 327° Northwest 421 484 37,900 49 Level Salt Center
Tue 09:06:43 PM 44.1592 -106.6247 326° Northwest 427 491 38,000 49 Climbing Salt Center
Tue 09:07:45 PM 44.2531 -106.7106 327° Northwest 421 484 38,000  Level Salt Center
Tue 09:08:46 PM 44.3650 -106.8114 327° Northwest 426 490 38,000  Level Salt Center
Tue 09:09:47 PM 44.4589 -106.9003 326° Northwest 424 488 38,000  Level Salt Center
Tue 09:10:49 PM 44.5547 -106.9883 327° Northwest 428 493 38,000  Level Salt Center
Tue 09:11:50 PM 44.6664 -107.0936 326° Northwest 431 496 38,000  Level Salt Center
Tue 09:12:51 PM 44.7625 -107.1822 327° Northwest 432 497 38,000  Level Salt Center
Tue 09:13:53 PM 44.8719 -107.2886 325° Northwest 430 495 38,000  Level Salt Center
Tue 09:14:54 PM 44.9675 -107.3781 326° Northwest 432 497 38,000  Level Salt Center
Tue 09:15:56 PM 45.0781 -107.4842 326° Northwest 432 497 38,000  Level Salt Center
Tue 09:16:57 PM 45.1722 -107.5739 326° Northwest 431 496 38,000  Level Salt Center
Tue 09:17:58 PM 45.2653 -107.6650 325° Northwest 429 494 38,000  Level Salt Center
Tue 09:19:00 PM 45.3758 -107.7703 326° Northwest 429 494 38,000  Level Salt Center
Tue 09:20:01 PM 45.4697 -107.8622 326° Northwest 430 495 38,000  Level Salt Center
Tue 09:21:02 PM 45.5806 -107.9697 326° Northwest 433 498 38,000  Level Salt Center
Tue 09:22:04 PM 45.6739 -108.0614 326° Northwest 428 493 38,000  Level Salt Center
Tue 09:23:05 PM 45.7672 -108.1528 326° Northwest 427 491 38,000  Level Salt Center
Tue 09:24:06 PM 45.8772 -108.2600 326° Northwest 429 494 38,000  Level Salt Center
Tue 09:25:07 PM 45.9714 -108.3531 326° Northwest 430 495 38,000  Level Salt Center
Tue 09:26:09 PM 46.0806 -108.4617 325° Northwest 427 491 38,000  Level Salt Center
Tue 09:27:10 PM 46.1736 -108.5558 325° Northwest 427 491 38,000  Level Salt Center
Tue 09:28:11 PM 46.2669 -108.6500 325° Northwest 428 493 38,000  Level Salt Center
Tue 09:29:13 PM 46.3753 -108.7594 325° Northwest 426 490 38,000  Level Salt Center
Tue 09:30:14 PM 46.4681 -108.8528 325° Northwest 426 490 38,000  Level Salt Center
Tue 09:31:15 PM 46.5767 -108.9639 325° Northwest 428 493 38,000  Level Salt Center
Tue 09:32:17 PM 46.6694 -109.0594 325° Northwest 428 493 38,000 -49 Level Salt Center
Tue 09:33:18 PM 46.7617 -109.1553 325° Northwest 428 493 37,900 -49 Descending Salt Center
Tue 09:34:19 PM 46.8569 -109.2542 325° Northwest 424 488 37,900  Level Salt Center
Tue 09:35:21 PM 46.9531 -109.3542 325° Northwest 424 488 37,900 49 Level Salt Center
Tue 09:36:22 PM 47.0494 -109.4542 325° Northwest 427 491 38,000  Climbing Salt Center
Tue 09:37:23 PM 47.1636 -109.5744 324° Northwest 422 486 37,900 -49 Descending Salt Center
Tue 09:38:25 PM 47.2594 -109.6747 325° Northwest 425 489 37,900  Level Salt Center
Tue 09:39:26 PM 47.3550 -109.7772 324° Northwest 427 491 37,900 49 Level Salt Center
Tue 09:40:27 PM 47.4511 -109.8792 324° Northwest 426 490 38,000 49 Climbing Salt Center
Tue 09:41:29 PM 47.5467 -109.9803 324° Northwest 425 489 38,000 -49 Level Salt Center
Tue 09:42:30 PM 47.6414 -110.0839 324° Northwest 425 489 37,900 -49 Descending Salt Center
Tue 09:43:31 PM 47.7361 -110.1864 324° Northwest 426 490 37,900  Level Salt Center
Tue 09:44:33 PM 47.8350 -110.2894 325° Northwest 432 497 37,900  Level Salt Center
Tue 09:45:34 PM 47.9489 -110.4133 324° Northwest 429 494 37,900 49 Level Salt Center
Tue 09:46:35 PM 48.0447 -110.5189 324° Northwest 429 494 38,000 49 Climbing Salt Center
Tue 09:47:37 PM 48.1394 -110.6233 324° Northwest 428 493 38,000  Level Salt Center
Tue 09:48:38 PM 48.2339 -110.7283 323° Northwest 427 491 38,000 -49 Level Salt Center
Tue 09:49:39 PM 48.3267 -110.8311 324° Northwest 421 484 37,900 -49 Descending Salt Center
Tue 09:50:41 PM 48.4200 -110.9358 323° Northwest 420 483 37,900  Level Salt Center
Tue 09:51:42 PM 48.5133 -111.0400 324° Northwest 421 484 37,900  Level Salt Center
Tue 09:52:43 PM 48.6247 -111.1633 324° Northwest 417 480 37,900  Level Salt Center
Tue 09:53:45 PM 48.7167 -111.2683 323° Northwest 418 481 37,900  Level Salt Center
Tue 09:54:46 PM 48.8089 -111.3742 323° Northwest 418 481 37,900  Level Salt Center
Tue 09:55:48 PM 48.9006 -111.4783 323° Northwest 415 478 37,900 76 Level Salt Center
Tue 09:56:05 PM 48.9000 -111.5167 269° West 410 472 38,000 78 Climbing Edmonton Center
Tue 09:57:05 PM 49.0000 -111.6333 323° Northwest 410 472 38,000  Level Edmonton Center
Tue 09:58:05 PM 49.0833 -111.7333 322° Northwest 410 472 38,000  Level Edmonton Center
Tue 09:59:05 PM 49.1833 -111.8500 323° Northwest 410 472 38,000  Level Edmonton Center
Tue 10:00:05 PM 49.2833 -111.9667 323° Northwest 410 472 38,000  Level Edmonton Center
Tue 10:01:05 PM 49.3500 -112.0500 321° Northwest 410 472 38,000  Level Edmonton Center
Tue 10:02:05 PM 49.4500 -112.1667 323° Northwest 410 472 38,000  Level Edmonton Center
Tue 10:03:05 PM 49.5500 -112.2667 327° Northwest 410 472 38,000  Level Edmonton Center
Tue 10:04:05 PM 49.6333 -112.3833 318° Northwest 410 472 38,000  Level Edmonton Center
Tue 10:05:05 PM 49.7333 -112.5000 323° Northwest 410 472 38,000  Level Edmonton Center
Tue 10:06:05 PM 49.8167 -112.6000 322° Northwest 410 472 38,000  Level Edmonton Center
Tue 10:07:05 PM 49.9000 -112.7167 318° Northwest 410 472 38,000  Level Edmonton Center
Tue 10:08:05 PM 50.0000 -112.8167 327° Northwest 400 460 38,000  Level Edmonton Center
Tue 10:09:05 PM 50.0833 -112.9333 318° Northwest 400 460 38,000  Level Edmonton Center
Tue 10:10:05 PM 50.1667 -113.0333 322° Northwest 400 460 38,000  Level Edmonton Center
Tue 10:11:05 PM 50.2500 -113.1500 318° Northwest 400 460 38,000  Level Edmonton Center
Tue 10:12:05 PM 50.3333 -113.2500 323° Northwest 400 460 38,000  Level Edmonton Center
Tue 10:13:05 PM 50.4333 -113.3333 332° Northwest 390 449 38,000  Level Edmonton Center
Tue 10:14:05 PM 50.5167 -113.4333 323° Northwest 390 449 38,000  Level Edmonton Center
Tue 10:15:05 PM 50.6333 -113.5167 336° Northwest 390 449 38,000  Level Edmonton Center
Tue 10:16:05 PM 50.7333 -113.5833 337° Northwest 400 460 38,000  Level Edmonton Center
Tue 10:17:05 PM 50.8333 -113.6833 328° Northwest 400 460 38,000  Level Edmonton Center
Tue 10:18:05 PM 50.9167 -113.7500 333° Northwest 400 460 38,000  Level Edmonton Center
Tue 10:19:05 PM 51.0167 -113.8500 328° Northwest 390 449 38,000  Level Edmonton Center
Tue 10:20:05 PM 51.1333 -113.9000 345° North 400 460 38,000  Level Edmonton Center
Tue 10:21:05 PM 51.2500 -113.9000 360° North 410 472 38,000  Level Edmonton Center
Tue 10:22:05 PM 51.3500 -113.9000 360° North 400 460 38,000  Level Edmonton Center
Tue 10:23:05 PM 51.4667 -113.9000 360° North 400 460 38,000  Level Edmonton Center
Tue 10:24:05 PM 51.5833 -113.9000 360° North 410 472 38,000  Level Edmonton Center
Tue 10:25:05 PM 51.7167 -113.9000 360° North 410 472 38,000  Level Edmonton Center
Tue 10:26:05 PM 51.8167 -113.9167 354° North 410 472 38,000 -400 Level Edmonton Center
Tue 10:27:05 PM 51.9333 -113.9167 360° North 410 472 37,200 -950 Descending Edmonton Center
Tue 10:28:05 PM 52.0500 -113.9000 North 410 472 36,100 -1,000 Descending Edmonton Center
Tue 10:29:05 PM 52.1500 -113.9500 343° North 400 460 35,200 -1,150 Descending Edmonton Center
Tue 10:30:05 PM 52.2500 -114.0333 333° Northwest 400 460 33,800 -2,600 Descending Edmonton Center
Tue 10:31:05 PM 52.3667 -114.0833 345° North 410 472 30,000 -3,500 Descending Edmonton Center
Tue 10:32:05 PM 52.4667 -114.1333 343° North 420 483 26,800 -3,300 Descending Edmonton Center
Tue 10:33:05 PM 52.5833 -114.1333 360° North 420 483 23,400 -3,050 Descending Edmonton Center
Tue 10:34:05 PM 52.7167 -114.0833 13° North 420 483 20,700 -2,750 Descending Edmonton Center
Tue 10:35:05 PM 52.8167 -114.0500 11° North 410 472 17,900 -2,800 Descending Edmonton Center
Tue 10:36:05 PM 52.9167 -113.9333 35° Northeast 400 460 15,100 -2,800 Descending Edmonton Center
Tue 10:37:05 PM 52.9833 -113.8000 50° Northeast 390 449 12,300 -2,450 Descending Edmonton Center
Tue 10:38:05 PM 53.0667 -113.6833 40° Northeast 370 426 10,200 -1,150 Descending Edmonton Center
Tue 10:39:05 PM 53.1500 -113.5833 36° Northeast 310 357 10,000 -750 Descending Edmonton Center
Tue 10:40:05 PM 53.2000 -113.5000 45° Northeast 280 322 8,700 -800 Descending Edmonton Center
Tue 10:41:05 PM 53.2500 -113.4333 39° Northeast 240 276 8,400 -950 Descending Edmonton Center
Tue 10:42:05 PM 53.3000 -113.3833 31° Northeast 210 242 6,800 -1,650 Descending Edmonton Center
Tue 10:43:05 PM 53.3667 -113.3333 24° Northeast 220 253 5,100 -900 Descending Edmonton Center
Tue 10:44:05 PM 53.4000 -113.3500 343° North 200 230 5,000 -300 Descending Edmonton Center
Tue 10:45:05 PM 53.4333 -113.4167 310° West 180 207 4,500 -500 Descending Edmonton Center
Tue 10:46:05 PM 53.4000 -113.5000 236° Southwest 170 196 4,000 -400 Descending Edmonton Center
Tue 10:47:05 PM 53.3667 -113.5167 197° South 150 173 3,700 -500 Descending Edmonton Center
Tue 10:48:05 PM 53.3333 -113.5667 222° Southwest 140 161 3,000 -700 Descending Edmonton Center
Tue 10:49:05 PM 53.3000 -113.5833 197° South 140 161 2,300 -700 Descending Edmonton Center

Login

Don't have an account? Register now (free) for customized features, flight alerts, and more!